Time;durP1;ratioP1;P1;durP2;ratioP2;P2;SDS_P1;SDS_P2;PMS_P1;PMS_P2;Temp;Humidity;BMP_temperature;BMP_pressure;BME280_temperature;BME280_humidity;BME280_pressure;Samples;Min_cycle;Max_cycle;Signal;HPM_P1;HPM_P2
2023/04/08 00:00:21;;;;;;;25.27;20.30;;;11.60;99.90;;;;;;4879817;29;20408;-78
2023/04/08 00:02:47;;;;;;;27.93;22.30;;;11.60;99.90;;;;;;4879074;29;20572;-78
2023/04/08 00:05:13;;;;;;;27.37;20.13;;;11.50;99.90;;;;;;4879931;29;20180;-78
2023/04/08 00:07:38;;;;;;;23.67;20.43;;;11.60;99.90;;;;;;4879888;29;20286;-78
2023/04/08 00:10:05;;;;;;;25.53;20.90;;;11.60;99.90;;;;;;4880639;29;20528;-77
2023/04/08 00:12:32;;;;;;;25.57;20.13;;;11.60;99.90;;;;;;4879858;29;20624;-78
2023/04/08 00:14:57;;;;;;;24.97;20.53;;;11.50;99.90;;;;;;4880408;29;20920;-78
2023/04/08 00:17:23;;;;;;;27.70;21.30;;;11.50;99.90;;;;;;4878373;29;20505;-78
2023/04/08 00:19:49;;;;;;;25.70;19.40;;;11.50;99.90;;;;;;4879944;29;20199;-77
2023/04/08 00:22:15;;;;;;;23.90;19.33;;;11.50;99.90;;;;;;4879899;29;20181;-77
2023/04/08 00:24:40;;;;;;;26.70;17.97;;;11.50;99.90;;;;;;4878717;29;20443;-77
2023/04/08 00:27:06;;;;;;;41.13;17.80;;;11.40;99.90;;;;;;4879600;29;20201;-77
2023/04/08 00:29:32;;;;;;;18.43;16.50;;;11.40;99.90;;;;;;4879455;29;20182;-77
2023/04/08 00:31:57;;;;;;;20.30;16.50;;;11.30;99.90;;;;;;4880310;29;20172;-77
2023/04/08 00:34:23;;;;;;;21.63;16.20;;;11.30;99.90;;;;;;4879720;29;20179;-78
2023/04/08 00:36:49;;;;;;;35.20;15.83;;;11.30;99.90;;;;;;4879652;29;20211;-77
2023/04/08 00:39:15;;;;;;;25.87;15.90;;;11.30;99.90;;;;;;4880622;29;20200;-77
2023/04/08 00:41:40;;;;;;;21.03;15.03;;;11.20;99.90;;;;;;4878742;29;20196;-77
2023/04/08 00:44:06;;;;;;;17.80;15.00;;;11.10;99.90;;;;;;4879501;29;20180;-77
2023/04/08 00:46:37;;;;;;;38.47;16.37;;;11.10;99.90;;;;;;4879306;29;20179;-77
2023/04/08 00:49:04;;;;;;;23.53;13.83;;;11.10;99.90;;;;;;4879851;29;20483;-77
2023/04/08 00:51:30;;;;;;;36.80;16.73;;;11.00;99.90;;;;;;4879119;29;20816;-77
2023/04/08 00:53:56;;;;;;;21.00;14.90;;;10.90;99.90;;;;;;4879234;29;20445;-77
2023/04/08 00:56:23;;;;;;;42.70;16.53;;;10.90;99.90;;;;;;4878921;29;20448;-77
2023/04/08 00:58:53;;;;;;;21.17;15.73;;;10.90;99.90;;;;;;4878217;29;20188;-77
2023/04/08 01:01:50;;;;;;;34.30;18.40;;;10.80;99.90;;;;;;4879461;29;20443;-77
2023/04/08 01:04:32;;;;;;;33.97;16.63;;;10.80;99.90;;;;;;4880290;29;20876;-77
2023/04/08 01:07:06;;;;;;;26.70;17.93;;;10.70;99.90;;;;;;4879932;29;20419;-77
2023/04/08 01:09:34;;;;;;;30.10;18.33;;;10.70;99.90;;;;;;4877985;29;20434;-77
2023/04/08 01:12:05;;;;;;;61.03;19.10;;;10.70;99.90;;;;;;4879539;29;20458;-77
2023/04/08 01:14:33;;;;;;;67.20;17.93;;;10.70;99.90;;;;;;4878583;29;20413;-77
2023/04/08 01:17:01;;;;;;;33.93;17.70;;;10.70;99.90;;;;;;4879305;29;20484;-77
2023/04/08 01:19:33;;;;;;;37.53;17.67;;;10.60;99.90;;;;;;4878651;29;20860;-77
2023/04/08 01:22:20;;;;;;;21.97;17.77;;;10.60;99.90;;;;;;4878172;29;20441;-77
2023/04/08 01:24:47;;;;;;;54.43;18.17;;;10.60;99.90;;;;;;4878420;29;20402;-78
2023/04/08 01:27:13;;;;;;;48.47;19.10;;;10.60;99.90;;;;;;4877413;29;20438;-77
2023/04/08 01:29:40;;;;;;;50.73;19.27;;;10.60;99.90;;;;;;4878326;29;20511;-77
2023/04/08 01:32:07;;;;;;;48.77;20.70;;;10.60;99.90;;;;;;4878933;29;20423;-77
2023/04/08 01:34:35;;;;;;;59.13;17.53;;;10.60;99.90;;;;;;4877778;29;20479;-77
2023/04/08 01:37:01;;;;;;;69.87;19.03;;;10.60;99.90;;;;;;4879328;29;20559;-77
2023/04/08 01:39:29;;;;;;;56.87;19.23;;;10.70;99.90;;;;;;4892778;29;20907;-77
2023/04/08 01:41:57;;;;;;;86.17;18.33;;;10.60;99.90;;;;;;4879059;29;20415;-77
2023/04/08 01:44:26;;;;;;;56.00;17.03;;;10.60;99.90;;;;;;4877959;29;20487;-78
2023/04/08 01:46:53;;;;;;;37.43;17.43;;;10.60;99.90;;;;;;4877847;29;20440;-78
2023/04/08 01:49:21;;;;;;;39.27;19.37;;;10.60;99.90;;;;;;4879215;29;20501;-78
2023/04/08 01:51:48;;;;;;;69.17;18.90;;;10.60;99.90;;;;;;4878632;29;20403;-78
2023/04/08 01:54:14;;;;;;;32.53;16.27;;;10.60;99.90;;;;;;4877836;29;20432;-78
2023/04/08 01:56:42;;;;;;;48.63;19.07;;;10.60;99.90;;;;;;4876558;29;20475;-77
2023/04/08 01:59:12;;;;;;;29.23;17.10;;;10.60;99.90;;;;;;4878077;29;20896;-77
2023/04/08 02:01:38;;;;;;;30.07;18.47;;;10.60;99.90;;;;;;4877944;29;20447;-77
2023/04/08 02:04:04;;;;;;;40.10;18.57;;;10.60;99.90;;;;;;4878811;29;20412;-77
2023/04/08 02:06:31;;;;;;;32.40;19.77;;;10.60;99.90;;;;;;4878092;29;20447;-78
2023/04/08 02:08:58;;;;;;;24.13;17.13;;;10.60;99.90;;;;;;4878403;29;20416;-78
2023/04/08 02:11:24;;;;;;;26.03;19.00;;;10.60;99.90;;;;;;4877617;29;20423;-78
2023/04/08 02:13:51;;;;;;;29.07;18.40;;;10.60;99.90;;;;;;4878055;29;20965;-77
2023/04/08 02:16:29;;;;;;;43.90;19.10;;;10.60;99.90;;;;;;4877266;29;20485;-77
2023/04/08 02:18:59;;;;;;;40.03;18.60;;;10.60;99.90;;;;;;4878668;29;20945;-77
2023/04/08 02:21:36;;;;;;;24.73;17.50;;;10.60;99.90;;;;;;4877815;29;20434;-77
2023/04/08 02:24:06;;;;;;;46.73;18.63;;;10.60;99.90;;;;;;4877708;29;20444;-77
2023/04/08 02:26:34;;;;;;;25.83;17.47;;;10.60;99.90;;;;;;4877965;29;20791;-77
2023/04/08 02:29:02;;;;;;;29.63;17.57;;;10.70;99.90;;;;;;4877409;29;20907;-77
2023/04/08 02:31:29;;;;;;;52.30;19.57;;;10.60;99.90;;;;;;4877799;29;20411;-77
2023/04/08 02:33:56;;;;;;;30.27;17.77;;;10.60;99.90;;;;;;4878383;29;20508;-77
2023/04/08 02:36:22;;;;;;;26.73;17.93;;;10.60;99.90;;;;;;4878385;29;20550;-76
2023/04/08 02:38:49;;;;;;;25.40;17.00;;;10.60;99.90;;;;;;4876798;29;20570;-76
2023/04/08 02:41:15;;;;;;;29.40;17.50;;;10.60;99.90;;;;;;4878238;29;20419;-77
2023/04/08 02:43:41;;;;;;;69.27;18.93;;;10.60;99.90;;;;;;4877395;29;20443;-77
2023/04/08 02:46:09;;;;;;;29.80;18.33;;;10.60;99.90;;;;;;4877903;29;20446;-77
2023/04/08 02:48:35;;;;;;;41.00;17.20;;;10.60;99.90;;;;;;4875371;29;20903;-77
2023/04/08 02:51:01;;;;;;;32.43;17.67;;;10.60;99.90;;;;;;4878319;29;20413;-77
2023/04/08 02:53:27;;;;;;;25.80;16.17;;;10.60;99.90;;;;;;4877879;29;20410;-77
2023/04/08 02:55:52;;;;;;;26.20;17.43;;;10.50;99.90;;;;;;4877803;29;20977;-77
2023/04/08 02:58:18;;;;;;;23.60;16.50;;;10.50;99.90;;;;;;4877543;29;20206;-77
2023/04/08 03:00:44;;;;;;;50.77;16.57;;;10.50;99.90;;;;;;4877665;29;20179;-77
2023/04/08 03:03:10;;;;;;;38.83;18.67;;;10.50;99.90;;;;;;4876100;29;20181;-77
2023/04/08 03:05:36;;;;;;;52.97;16.50;;;10.50;99.90;;;;;;4877342;29;20171;-77
2023/04/08 03:08:01;;;;;;;27.43;17.53;;;10.40;99.90;;;;;;4877635;29;20526;-77
2023/04/08 03:10:27;;;;;;;27.13;17.23;;;10.40;99.90;;;;;;4877991;29;20485;-77
2023/04/08 03:12:53;;;;;;;25.90;16.63;;;10.40;99.90;;;;;;4878112;29;20624;-78
2023/04/08 03:15:19;;;;;;;50.80;16.50;;;10.50;99.90;;;;;;4876715;29;20222;-77
2023/04/08 03:17:45;;;;;;;31.73;16.63;;;10.40;99.90;;;;;;4876750;29;20290;-78
2023/04/08 03:20:10;;;;;;;26.97;15.70;;;10.40;99.90;;;;;;4877135;29;20457;-78
2023/04/08 03:22:36;;;;;;;30.57;16.60;;;10.50;99.90;;;;;;4880481;29;20248;-78
2023/04/08 03:25:03;;;;;;;20.77;15.10;;;10.40;99.90;;;;;;4881509;29;20563;-77
2023/04/08 03:27:28;;;;;;;35.70;15.10;;;10.40;99.90;;;;;;4880580;29;20234;-78
2023/04/08 03:29:56;;;;;;;20.87;15.07;;;10.30;99.90;;;;;;4881114;29;20421;-77
2023/04/08 03:32:22;;;;;;;26.93;15.73;;;10.30;99.90;;;;;;4880452;29;20182;-77
2023/04/08 03:34:49;;;;;;;26.50;15.20;;;10.30;99.90;;;;;;4879178;29;20425;-77
2023/04/08 03:37:16;;;;;;;54.03;15.27;;;10.30;99.90;;;;;;4881149;29;20545;-77
2023/04/08 03:39:42;;;;;;;28.30;15.90;;;10.30;99.90;;;;;;4880364;29;20415;-78
2023/04/08 03:42:08;;;;;;;26.77;15.87;;;10.30;99.90;;;;;;4880932;29;20412;-78
2023/04/08 03:44:33;;;;;;;26.73;16.80;;;10.30;99.90;;;;;;4880489;29;20186;-78
2023/04/08 03:46:59;;;;;;;30.00;15.30;;;10.30;99.90;;;;;;4880327;29;20662;-78
2023/04/08 03:49:25;;;;;;;24.30;15.77;;;10.30;99.90;;;;;;4879787;29;20201;-78
2023/04/08 03:51:50;;;;;;;34.73;15.37;;;10.30;99.90;;;;;;4880457;29;20188;-78
2023/04/08 03:54:16;;;;;;;23.20;15.50;;;10.30;99.90;;;;;;4880376;29;20184;-77
2023/04/08 03:56:42;;;;;;;26.87;14.70;;;10.20;99.90;;;;;;4880367;29;20195;-78
2023/04/08 03:59:08;;;;;;;20.10;14.57;;;10.20;99.90;;;;;;4880157;29;20531;-78
2023/04/08 04:01:33;;;;;;;31.17;15.37;;;10.20;99.90;;;;;;4879928;29;20421;-77
2023/04/08 04:03:59;;;;;;;22.10;15.93;;;10.10;99.90;;;;;;4880816;29;20645;-77
2023/04/08 04:06:26;;;;;;;41.03;15.00;;;10.10;99.90;;;;;;4880697;29;20693;-77
2023/04/08 04:08:56;;;;;;;22.80;14.27;;;10.10;99.90;;;;;;4879865;29;20786;-77
2023/04/08 04:11:21;;;;;;;30.23;14.93;;;10.10;99.90;;;;;;4880948;29;20473;-77
2023/04/08 04:13:48;;;;;;;44.03;15.87;;;10.10;99.90;;;;;;4880141;29;20847;-77
2023/04/08 04:16:13;;;;;;;43.73;15.87;;;10.10;99.90;;;;;;4895051;29;20633;-77
2023/04/08 04:18:39;;;;;;;24.80;14.10;;;10.10;99.90;;;;;;4877867;29;20560;-78
2023/04/08 04:21:08;;;;;;;20.80;15.10;;;10.20;99.90;;;;;;4880737;29;20202;-77
2023/04/08 04:23:34;;;;;;;20.53;14.57;;;10.20;99.90;;;;;;4879671;29;20170;-77
2023/04/08 04:26:00;;;;;;;22.17;14.10;;;10.20;99.90;;;;;;4880636;29;20424;-77
2023/04/08 04:28:25;;;;;;;26.03;16.00;;;10.20;99.90;;;;;;4879772;29;20180;-77
2023/04/08 04:30:51;;;;;;;34.27;14.97;;;10.30;99.90;;;;;;4880005;29;20183;-78
2023/04/08 04:33:17;;;;;;;24.03;14.90;;;10.20;99.90;;;;;;4880059;29;20561;-77
2023/04/08 04:35:43;;;;;;;22.40;14.00;;;10.20;99.90;;;;;;4879247;29;20182;-78
2023/04/08 04:38:11;;;;;;;28.07;14.47;;;10.20;99.90;;;;;;4879127;29;20182;-77
2023/04/08 04:40:38;;;;;;;22.63;12.87;;;10.20;99.90;;;;;;4879932;29;20176;-78
2023/04/08 04:43:04;;;;;;;38.57;15.20;;;9.90;99.90;;;;;;4877992;29;20441;-77
2023/04/08 04:45:30;;;;;;;23.90;12.97;;;9.80;99.90;;;;;;4879641;29;20432;-78
2023/04/08 04:47:55;;;;;;;18.73;14.47;;;9.90;99.90;;;;;;4878626;29;20410;-77
2023/04/08 04:50:21;;;;;;;18.80;12.80;;;9.90;99.90;;;;;;4879019;29;20219;-78
2023/04/08 04:52:47;;;;;;;23.10;13.90;;;9.90;99.90;;;;;;4877995;29;20178;-78
2023/04/08 04:55:14;;;;;;;19.40;13.20;;;10.00;99.90;;;;;;4893913;29;20180;-77
2023/04/08 04:57:40;;;;;;;20.30;13.00;;;10.00;99.90;;;;;;4878516;29;20461;-78
2023/04/08 05:00:07;;;;;;;19.47;14.60;;;10.00;99.90;;;;;;4879311;29;20746;-77
2023/04/08 05:02:33;;;;;;;24.30;13.47;;;10.00;99.90;;;;;;4879717;29;20469;-78
2023/04/08 05:04:59;;;;;;;36.50;13.47;;;10.00;99.90;;;;;;4879344;29;20398;-78
2023/04/08 05:07:25;;;;;;;17.67;13.13;;;10.00;99.90;;;;;;4879823;29;20421;-78
2023/04/08 05:09:50;;;;;;;19.90;13.90;;;10.00;99.90;;;;;;4878411;29;21025;-78
2023/04/08 05:12:16;;;;;;;19.60;13.17;;;10.10;99.90;;;;;;4879607;29;20649;-78
2023/04/08 05:14:42;;;;;;;20.40;13.23;;;10.00;99.90;;;;;;4861970;29;20177;-78
2023/04/08 05:17:08;;;;;;;57.67;14.00;;;10.00;99.90;;;;;;4878970;29;20960;-78
2023/04/08 05:19:34;;;;;;;23.70;13.70;;;10.00;99.90;;;;;;4878854;29;20185;-78
2023/04/08 05:21:59;;;;;;;21.97;12.70;;;10.00;99.90;;;;;;4877449;29;20524;-77
2023/04/08 05:24:25;;;;;;;17.33;12.60;;;10.00;99.90;;;;;;4877206;29;20527;-77
2023/04/08 05:26:52;;;;;;;17.70;12.30;;;10.00;99.90;;;;;;4878311;29;20181;-76
2023/04/08 05:29:18;;;;;;;19.60;13.67;;;10.00;99.90;;;;;;4879021;29;20640;-77
2023/04/08 05:31:44;;;;;;;18.10;12.77;;;9.90;99.90;;;;;;4878389;29;20802;-77
2023/04/08 05:34:10;;;;;;;18.53;12.93;;;9.90;99.90;;;;;;4879229;29;20505;-77
2023/04/08 05:36:36;;;;;;;22.57;12.57;;;9.90;99.90;;;;;;4878863;29;20532;-78
2023/04/08 05:39:02;;;;;;;19.70;12.60;;;9.90;99.90;;;;;;4878688;29;20409;-76
2023/04/08 05:41:28;;;;;;;15.90;12.60;;;9.90;99.90;;;;;;4878743;29;20573;-77
2023/04/08 05:43:53;;;;;;;16.23;12.67;;;9.90;99.90;;;;;;4876573;29;20508;-78
2023/04/08 05:46:19;;;;;;;19.90;13.97;;;9.80;99.90;;;;;;4878613;29;20456;-78
2023/04/08 05:48:45;;;;;;;21.17;13.27;;;9.90;99.90;;;;;;4877471;29;20184;-78
2023/04/08 05:51:16;;;;;;;16.50;11.80;;;9.90;99.90;;;;;;4878687;29;20720;-77
2023/04/08 05:53:44;;;;;;;23.37;14.70;;;9.90;99.90;;;;;;4877798;29;20494;-78
2023/04/08 05:56:10;;;;;;;21.60;13.50;;;9.90;99.90;;;;;;4878352;29;20459;-77
2023/04/08 05:58:35;;;;;;;17.23;11.90;;;9.80;99.90;;;;;;4878138;29;20414;-77
2023/04/08 06:01:01;;;;;;;18.23;12.50;;;9.80;99.90;;;;;;4877465;29;20171;-77
2023/04/08 06:03:29;;;;;;;19.30;12.87;;;9.80;99.90;;;;;;4878201;29;20551;-77
2023/04/08 06:05:55;;;;;;;17.27;12.47;;;9.80;99.90;;;;;;4877316;29;20204;-77
2023/04/08 06:08:22;;;;;;;16.77;12.20;;;9.90;99.90;;;;;;4878018;29;20420;-77
2023/04/08 06:10:51;;;;;;;18.33;12.47;;;9.90;99.90;;;;;;4877144;29;20503;-77
2023/04/08 06:13:19;;;;;;;18.00;12.13;;;9.90;99.90;;;;;;4877931;29;20401;-77
2023/04/08 06:15:44;;;;;;;14.23;11.70;;;9.90;99.90;;;;;;4877424;29;20417;-79
2023/04/08 06:18:10;;;;;;;15.00;10.70;;;9.90;99.90;;;;;;4874329;29;20956;-81
2023/04/08 06:20:36;;;;;;;14.00;10.60;;;9.90;99.90;;;;;;4878030;29;20200;-79
2023/04/08 06:23:01;;;;;;;14.27;10.70;;;10.00;99.90;;;;;;4876649;29;20514;-79
2023/04/08 06:25:27;;;;;;;13.63;11.10;;;10.00;99.90;;;;;;4877631;29;20188;-80
2023/04/08 06:27:53;;;;;;;13.93;10.70;;;10.00;99.90;;;;;;4877625;29;20178;-80
2023/04/08 06:30:19;;;;;;;13.00;11.00;;;10.00;99.90;;;;;;4876911;29;20193;-79
2023/04/08 06:32:46;;;;;;;14.27;11.10;;;10.10;99.90;;;;;;4877338;29;20179;-81
2023/04/08 06:35:12;;;;;;;14.60;10.90;;;10.10;99.90;;;;;;4871703;29;20880;-81
2023/04/08 06:37:38;;;;;;;14.23;10.90;;;10.10;99.90;;;;;;4886788;29;20474;-78
2023/04/08 06:40:05;;;;;;;12.50;10.73;;;10.10;99.90;;;;;;4878246;29;20490;-79
2023/04/08 06:42:31;;;;;;;14.97;11.30;;;10.40;99.90;;;;;;4885616;29;20182;-79
2023/04/08 06:44:57;;;;;;;15.97;11.67;;;10.90;99.90;;;;;;4878217;29;20548;-83
2023/04/08 06:47:23;;;;;;;11.87;9.90;;;11.40;99.90;;;;;;4885925;29;20519;-79
2023/04/08 06:49:49;;;;;;;14.17;11.53;;;11.90;99.90;;;;;;4883685;29;20445;-79
2023/04/08 06:52:15;;;;;;;12.27;10.97;;;12.40;99.90;;;;;;4885291;29;20477;-79
2023/04/08 06:54:41;;;;;;;12.90;10.40;;;12.70;99.90;;;;;;4879201;29;20431;-79
2023/04/08 06:57:07;;;;;;;11.97;10.57;;;13.00;99.90;;;;;;4881868;29;20467;-78
2023/04/08 06:59:33;;;;;;;14.03;10.77;;;13.30;99.90;;;;;;4881978;29;20246;-78
2023/04/08 07:01:59;;;;;;;14.37;11.43;;;13.60;99.90;;;;;;4881542;29;20255;-78
2023/04/08 07:04:25;;;;;;;11.73;10.07;;;13.80;99.90;;;;;;4881923;29;20602;-77
2023/04/08 07:06:51;;;;;;;12.60;9.73;;;14.00;99.90;;;;;;4881077;29;20438;-79
2023/04/08 07:09:17;;;;;;;12.67;9.93;;;14.20;99.90;;;;;;4881812;29;20415;-78
2023/04/08 07:11:43;;;;;;;14.00;10.20;;;14.40;99.90;;;;;;4880838;29;20427;-78
2023/04/08 07:14:09;;;;;;;13.47;10.67;;;14.50;99.90;;;;;;4881657;29;20471;-78
2023/04/08 07:16:34;;;;;;;11.77;10.30;;;14.70;99.90;;;;;;4881617;29;20492;-78
2023/04/08 07:19:00;;;;;;;13.77;10.90;;;14.80;99.90;;;;;;4878119;29;20269;-78
2023/04/08 07:21:26;;;;;;;14.30;11.40;;;14.90;99.90;;;;;;4880555;29;20636;-78
2023/04/08 07:23:52;;;;;;;14.80;11.83;;;14.90;99.90;;;;;;4879657;29;20756;-83
2023/04/08 07:26:18;;;;;;;14.60;11.17;;;15.00;99.90;;;;;;4880438;29;20439;-83
2023/04/08 07:28:44;;;;;;;15.27;11.30;;;15.00;99.90;;;;;;4873243;29;20196;-83
2023/04/08 07:31:14;;;;;;;14.17;12.20;;;15.10;99.90;;;;;;4875534;29;20185;-83
2023/04/08 07:33:39;;;;;;;14.97;12.50;;;15.10;99.90;;;;;;4880439;29;20789;-83
2023/04/08 07:36:05;;;;;;;15.20;12.97;;;15.20;99.90;;;;;;4895150;29;20475;-83
2023/04/08 07:38:31;;;;;;;14.50;11.53;;;15.30;99.90;;;;;;4865336;29;20178;-83
2023/04/08 07:40:57;;;;;;;14.07;11.53;;;15.40;99.90;;;;;;4897895;29;20478;-85
2023/04/08 07:43:25;;;;;;;625.10;384.57;;;15.40;99.90;;;;;;4895841;29;20180;-86
2023/04/08 07:45:51;;;;;;;239.80;164.20;;;15.40;99.90;;;;;;4877199;29;20229;-85
2023/04/08 07:48:17;;;;;;;29.03;22.60;;;15.50;99.90;;;;;;4877928;29;20434;-83
2023/04/08 07:50:44;;;;;;;19.60;14.67;;;15.60;99.90;;;;;;4878115;29;20638;-87
2023/04/08 07:53:10;;;;;;;17.60;14.13;;;15.60;99.90;;;;;;4868456;29;20188;-84
2023/04/08 07:55:36;;;;;;;20.40;14.90;;;15.60;99.90;;;;;;4879409;29;20568;-83
2023/04/08 07:58:01;;;;;;;18.17;14.20;;;15.70;99.30;;;;;;4880312;29;20556;-84
2023/04/08 08:00:30;;;;;;;20.13;16.10;;;15.70;99.50;;;;;;4880461;29;20188;-85
2023/04/08 08:02:56;;;;;;;23.47;16.37;;;15.80;99.90;;;;;;4879277;29;20426;-82
2023/04/08 08:05:21;;;;;;;20.93;16.77;;;15.90;99.90;;;;;;4877340;29;20440;-83
2023/04/08 08:07:47;;;;;;;23.27;17.50;;;15.90;99.90;;;;;;4876940;29;20193;-84
2023/04/08 08:10:13;;;;;;;21.97;17.93;;;16.00;99.90;;;;;;4879624;29;20191;-84
2023/04/08 08:12:38;;;;;;;21.63;17.67;;;16.00;98.70;;;;;;4879621;29;20259;-84
2023/04/08 08:15:05;;;;;;;20.17;16.73;;;16.00;99.10;;;;;;4879922;29;20245;-85
2023/04/08 08:17:32;;;;;;;19.63;16.40;;;16.10;99.40;;;;;;4879310;29;20234;-84
2023/04/08 08:19:59;;;;;;;17.77;15.73;;;16.10;99.90;;;;;;4879522;29;20898;-84
2023/04/08 08:22:26;;;;;;;18.37;16.37;;;16.20;99.90;;;;;;4887513;29;20420;-82
2023/04/08 08:24:58;;;;;;;101.47;71.00;;;16.20;99.40;;;;;;4889188;29;20450;-84
2023/04/08 08:27:24;;;;;;;52.93;42.37;;;16.30;99.90;;;;;;4873621;29;20505;-84
2023/04/08 08:29:51;;;;;;;21.23;19.03;;;16.30;99.90;;;;;;4871867;29;20471;-83
2023/04/08 08:32:17;;;;;;;18.30;16.30;;;16.40;99.30;;;;;;4888742;29;20410;-84
2023/04/08 08:34:43;;;;;;;18.57;16.87;;;16.40;96.90;;;;;;4899000;29;20542;-86
2023/04/08 08:37:09;;;;;;;18.63;16.97;;;16.40;98.50;;;;;;4880741;29;20467;-84
2023/04/08 08:39:35;;;;;;;19.13;17.37;;;16.50;98.10;;;;;;4885248;29;20418;-84
2023/04/08 08:42:01;;;;;;;19.27;17.50;;;16.50;97.20;;;;;;4888496;29;20410;-84
2023/04/08 08:44:30;;;;;;;18.57;16.90;;;16.60;95.90;;;;;;4889707;29;20426;-83
2023/04/08 08:46:57;;;;;;;20.70;18.60;;;16.60;96.00;;;;;;4902407;29;20187;-85
2023/04/08 08:49:23;;;;;;;18.77;16.87;;;16.70;95.60;;;;;;4889120;29;20423;-83
2023/04/08 08:51:51;;;;;;;18.43;16.60;;;16.70;96.40;;;;;;4886512;29;20423;-85
2023/04/08 08:54:17;;;;;;;18.47;16.77;;;16.70;96.20;;;;;;4880960;29;20198;-83
2023/04/08 08:56:43;;;;;;;17.20;15.57;;;16.80;96.10;;;;;;4883394;29;20463;-83
2023/04/08 08:59:09;;;;;;;17.60;16.00;;;16.90;97.10;;;;;;4878319;29;20672;-83
2023/04/08 09:01:36;;;;;;;19.67;17.67;;;16.90;96.40;;;;;;4878700;29;20175;-82
2023/04/08 09:04:18;;;;;;;18.70;16.90;;;16.90;93.90;;;;;;4878595;29;20576;-83
2023/04/08 09:06:45;;;;;;;18.77;16.80;;;16.90;95.10;;;;;;4865221;29;20419;-84
2023/04/08 09:09:11;;;;;;;459.90;315.63;;;17.00;94.30;;;;;;4880374;29;20470;-84
2023/04/08 09:11:42;;;;;;;462.07;342.10;;;17.00;93.90;;;;;;4879792;29;20421;-84
2023/04/08 09:14:23;;;;;;;32.03;25.40;;;17.00;93.80;;;;;;4877844;29;20424;-84
2023/04/08 09:16:49;;;;;;;16.53;14.83;;;17.10;92.60;;;;;;4877890;29;20950;-86
2023/04/08 09:19:18;;;;;;;20.60;18.53;;;16.90;90.90;;;;;;4878929;29;20412;-84
2023/04/08 09:21:43;;;;;;;16.23;14.63;;;16.90;94.50;;;;;;4879720;29;20423;-84
2023/04/08 09:24:27;;;;;;;19.90;17.80;;;16.80;94.30;;;;;;4879041;29;20416;-84
2023/04/08 09:26:53;;;;;;;16.90;15.30;;;16.90;93.60;;;;;;4878838;29;20179;-84
2023/04/08 09:29:23;;;;;;;17.37;15.67;;;16.80;93.00;;;;;;4878338;29;20507;-84
2023/04/08 09:31:53;;;;;;;15.30;13.90;;;16.80;91.70;;;;;;4877658;29;20185;-86
2023/04/08 09:34:20;;;;;;;14.93;13.63;;;16.80;92.20;;;;;;4877495;29;20470;-84
2023/04/08 09:36:48;;;;;;;14.63;13.30;;;16.80;92.10;;;;;;4879259;29;20474;-84
2023/04/08 09:39:14;;;;;;;14.30;13.10;;;16.80;92.00;;;;;;4874989;29;20428;-82
2023/04/08 09:41:41;;;;;;;14.60;13.30;;;16.80;92.10;;;;;;4877487;29;20439;-84
2023/04/08 09:44:11;;;;;;;15.57;13.97;;;16.80;91.70;;;;;;4875816;29;20621;-84
2023/04/08 09:46:49;;;;;;;15.47;13.93;;;16.80;90.70;;;;;;4877892;29;20435;-85
2023/04/08 09:49:25;;;;;;;15.70;14.30;;;16.60;91.20;;;;;;4861962;29;20438;-77
2023/04/08 09:52:14;;;;;;;15.03;13.63;;;16.40;90.60;;;;;;4878416;29;20179;-81
2023/04/08 09:55:07;;;;;;;14.53;13.33;;;15.90;90.30;;;;;;4879034;29;20415;-79
2023/04/08 09:57:55;;;;;;;14.57;13.27;;;15.20;91.70;;;;;;4876187;29;20476;-80
2023/04/08 10:00:27;;;;;;;14.77;13.43;;;14.70;93.40;;;;;;4884812;29;20432;-80
2023/04/08 10:03:14;;;;;;;14.70;13.30;;;14.20;94.60;;;;;;4877299;29;20420;-80
2023/04/08 10:05:42;;;;;;;15.30;13.87;;;13.80;95.90;;;;;;4879037;29;20411;-79
2023/04/08 10:08:09;;;;;;;14.93;13.57;;;13.60;97.30;;;;;;4866275;29;20577;-79
2023/04/08 10:10:38;;;;;;;15.50;14.10;;;13.30;97.10;;;;;;4878773;29;20932;-80
2023/04/08 10:13:05;;;;;;;283.77;170.40;;;13.10;99.00;;;;;;4878036;29;20404;-79
2023/04/08 10:15:32;;;;;;;29.80;24.50;;;12.90;99.90;;;;;;4878633;29;20427;-79
2023/04/08 10:18:04;;;;;;;16.73;15.13;;;12.60;99.90;;;;;;4877753;29;20472;-79
2023/04/08 10:20:36;;;;;;;13.40;12.20;;;12.60;99.90;;;;;;4878412;29;20472;-80
2023/04/08 10:23:13;;;;;;;15.03;13.53;;;12.40;99.90;;;;;;4877884;29;20412;-83
2023/04/08 10:25:42;;;;;;;14.83;13.33;;;12.30;99.90;;;;;;4878076;29;20441;-80
2023/04/08 10:28:10;;;;;;;15.30;13.77;;;12.20;99.90;;;;;;4878007;29;20424;-80
2023/04/08 10:30:40;;;;;;;13.43;12.10;;;12.20;99.90;;;;;;4878111;29;20458;-80
2023/04/08 10:33:37;;;;;;;15.10;13.70;;;12.20;99.90;;;;;;4876810;29;20876;-80
2023/04/08 10:36:08;;;;;;;15.10;13.63;;;12.20;99.90;;;;;;4873906;29;20818;-80
2023/04/08 10:38:34;;;;;;;15.60;14.10;;;12.10;99.90;;;;;;4878335;29;20459;-80
2023/04/08 10:41:00;;;;;;;15.33;13.93;;;12.10;99.90;;;;;;4877419;29;20446;-80
2023/04/08 10:43:30;;;;;;;16.43;14.77;;;12.10;99.90;;;;;;4878083;29;20813;-80
2023/04/08 10:45:56;;;;;;;14.90;13.37;;;12.10;99.90;;;;;;4876472;29;20511;-80
2023/04/08 10:48:23;;;;;;;16.17;14.57;;;12.20;99.90;;;;;;4878013;29;20515;-80
2023/04/08 10:50:54;;;;;;;13.50;12.20;;;12.20;99.90;;;;;;4877812;29;20175;-80
2023/04/08 10:53:29;;;;;;;15.00;13.60;;;12.20;99.90;;;;;;4877444;29;20464;-80
2023/04/08 10:56:05;;;;;;;14.50;13.10;;;12.10;99.90;;;;;;4877219;29;20908;-80
2023/04/08 10:58:31;;;;;;;12.73;11.60;;;12.00;99.90;;;;;;4875119;29;20728;-89
2023/04/08 11:01:06;;;;;;;14.97;13.50;;;12.10;99.90;;;;;;4879495;29;20442;-81
2023/04/08 11:03:33;;;;;;;14.07;12.87;;;12.10;99.90;;;;;;4877009;29;20201;-82
2023/04/08 11:06:00;;;;;;;14.03;12.63;;;12.20;99.90;;;;;;4877339;29;20937;-80
2023/04/08 11:08:31;;;;;;;15.23;13.73;;;12.20;99.90;;;;;;4876740;29;20416;-80
2023/04/08 11:11:00;;;;;;;15.10;13.50;;;12.30;99.90;;;;;;4877230;29;20412;-80
2023/04/08 11:13:27;;;;;;;14.23;12.93;;;12.40;99.90;;;;;;4877945;29;20764;-79
2023/04/08 11:15:54;;;;;;;15.20;13.70;;;12.50;99.90;;;;;;4877131;29;20784;-80
2023/04/08 11:18:21;;;;;;;14.00;12.70;;;12.60;99.90;;;;;;4876537;29;20487;-78
2023/04/08 11:20:50;;;;;;;15.60;13.10;;;12.60;99.90;;;;;;4877784;29;20865;-79
2023/04/08 11:23:16;;;;;;;13.97;12.67;;;12.70;99.90;;;;;;4877138;29;20406;-80
2023/04/08 11:25:43;;;;;;;14.50;13.00;;;12.80;99.90;;;;;;4877659;29;20920;-80
2023/04/08 11:28:10;;;;;;;13.80;12.50;;;12.70;99.90;;;;;;4875665;29;20937;-81
2023/04/08 11:30:38;;;;;;;13.23;12.10;;;12.70;99.90;;;;;;4877929;29;20788;-80
2023/04/08 11:33:04;;;;;;;14.50;13.13;;;12.80;99.90;;;;;;4860800;29;20461;-81
2023/04/08 11:35:30;;;;;;;14.07;12.77;;;12.90;99.90;;;;;;4878186;29;20401;-81
2023/04/08 11:37:57;;;;;;;14.67;13.27;;;12.90;99.90;;;;;;4883030;29;20211;-82
2023/04/08 11:40:23;;;;;;;15.53;14.03;;;13.00;99.90;;;;;;4857856;29;20423;-80
2023/04/08 11:42:52;;;;;;;14.80;13.40;;;12.90;99.90;;;;;;4879844;29;20442;-80
2023/04/08 11:45:20;;;;;;;15.27;13.77;;;12.70;99.90;;;;;;4879425;29;20692;-80
2023/04/08 11:47:47;;;;;;;16.17;13.70;;;12.60;99.90;;;;;;4881070;29;20456;-80
2023/04/08 11:50:23;;;;;;;15.60;14.00;;;12.40;99.90;;;;;;4863954;29;20410;-80
2023/04/08 11:52:50;;;;;;;16.00;14.40;;;12.40;99.90;;;;;;4881399;29;20457;-80
2023/04/08 11:55:28;;;;;;;16.03;13.90;;;12.50;99.90;;;;;;4879374;29;20498;-80
2023/04/08 11:57:55;;;;;;;16.37;14.67;;;12.60;99.90;;;;;;4880887;29;20470;-80
2023/04/08 12:00:22;;;;;;;17.37;15.57;;;12.70;99.90;;;;;;4880557;29;20414;-80
2023/04/08 12:02:48;;;;;;;17.90;15.67;;;12.70;99.90;;;;;;4881226;29;20872;-80
2023/04/08 12:05:15;;;;;;;17.63;15.80;;;12.70;99.90;;;;;;4880350;29;20442;-80
2023/04/08 12:07:41;;;;;;;15.87;14.27;;;12.80;99.90;;;;;;4880329;29;20913;-80
2023/04/08 12:10:08;;;;;;;17.20;15.40;;;12.80;99.90;;;;;;4888470;29;20540;-80
2023/04/08 12:12:34;;;;;;;16.67;14.63;;;12.80;99.90;;;;;;4881000;29;20750;-80
2023/04/08 12:15:00;;;;;;;17.43;15.63;;;12.90;99.90;;;;;;4880600;29;20416;-82
2023/04/08 12:17:25;;;;;;;17.40;15.60;;;13.00;99.90;;;;;;4880709;29;20518;-80
2023/04/08 12:19:51;;;;;;;17.53;15.87;;;13.00;99.90;;;;;;4880976;29;20236;-80
2023/04/08 12:22:17;;;;;;;16.73;15.13;;;13.00;99.90;;;;;;4894278;29;20288;-80
2023/04/08 12:24:43;;;;;;;17.90;16.10;;;13.00;99.90;;;;;;4880987;29;20190;-80
2023/04/08 12:27:08;;;;;;;17.90;16.30;;;13.00;99.90;;;;;;4879835;29;20200;-80
2023/04/08 12:29:34;;;;;;;18.07;16.30;;;13.00;99.90;;;;;;4879494;29;20429;-80